Terminal Aerodrome Forecast
Issued by NWS

Home | Current Version | Previous Version | Text Only | Print | Product List | Glossary On
Versions: 1 2 3 4 5 6 7 8 9 10 11 12 13 14 15 16 17 18
627
FTUS41 KPBZ 272057 AAA
TAFHLG
TAF AMD
KHLG 272057Z 2721/2818 20015G25KT P6SM BKN050
      TEMPO 2723/2724 22015G30KT P6SM -SHRA BKN035
     FM280000 21007KT P6SM BKN060
     FM280800 26003KT P6SM SCT040=

USA.gov is the U.S. government's official web portal to all federal, state and local government web resources and services.